Terminal Aerodrome Forecast
Issued by NWS

Home | Current Version | Previous Version | Text Only | Print | Product List | Glossary On
Versions: 1 2 3 4 5 6 7 8 9 10 11 12 13 14 15 16 17 18 19 20 21 22 23
000
FTUS44 KSJT 021000 AAA
TAFBBD
TAF AMD
KBBD 021019Z 0210/0306 18005KT P6SM SKC
     FM021200 16006KT P6SM SCT015
     FM021500 17013KT P6SM FEW030
     FM021700 17014G23KT P6SM SCT040
     FM030100 15008KT P6SM SCT250=

USA.gov is the U.S. government's official web portal to all federal, state and local government web resources and services.